This is the latest recevied weather packets stored in our database for station/object IK6ZNK-3. If no packets are shown the sender has not sent any weather packets the latest 1 day(s).
| Time | Temp. | Humidity | Pressure | Rain* | Wind** | Luminosity | Snow |
|---|---|---|---|---|---|---|---|
| 1778028606 | 15.56° C | 77% | 1005.4 hPa | 0 mm | 1.34 m/s, 111° | - | - |
| 1778028006 | 14.44° C | 79% | 1005.4 hPa | 0 mm | 0.89 m/s, 114° | - | - |
| 1778027407 | 15° C | 80% | 1005.3 hPa | 0 mm | 0.45 m/s, 90° | - | - |
| 1778026807 | 15° C | 80% | 1005.3 hPa | 0 mm | 0.45 m/s, 90° | - | - |
| 1778026207 | 15° C | 81% | 1005.4 hPa | 0 mm | 0 m/s | - | - |
| 1778025607 | 15.56° C | 80% | 1005.4 hPa | 0 mm | 1.34 m/s, 58° | - | - |
| 1778025007 | 15° C | 81% | 1005.7 hPa | 0 mm | 0.89 m/s, 53° | - | - |
| 1778024406 | 15.56° C | 79% | 1005.8 hPa | 0 mm | 0.45 m/s, 347° | - | - |
| 1778023806 | 16.67° C | 70% | 1005.6 hPa | 0 mm | 1.34 m/s, 177° | - | - |
| 1778023207 | 17.22° C | 68% | 1005.5 hPa | 0 mm | 2.68 m/s, 161° | - | - |
| 1778022607 | 17.22° C | 68% | 1005.7 hPa | 0 mm | 3.58 m/s, 161° | - | - |
| 1778022007 | 17.22° C | 69% | 1005.8 hPa | 0 mm | 2.68 m/s, 166° | - | - |
| 1778021406 | 17.22° C | 68% | 1005.8 hPa | 0 mm | 1.79 m/s, 184° | - | - |
| 1778020806 | 16.67° C | 69% | 1006 hPa | 0 mm | 2.24 m/s, 167° | - | - |
| 1778020216 | 16.67° C | 70% | 1006.1 hPa | 0 mm | 1.34 m/s, 160° | - | - |
| 1778019606 | 16.11° C | 70% | 1006.1 hPa | 0 mm | 0.89 m/s, 168° | - | - |
| 1778019007 | 15.56° C | 76% | 1006.2 hPa | 0 mm | 0 m/s | - | - |
| 1778018410 | 15.56° C | 76% | 1006.4 hPa | 0 mm | 0.45 m/s, 182° | - | - |
| 1778017807 | 15.56° C | 76% | 1006.4 hPa | 0 mm | 0 m/s | - | - |
| 1778017206 | 16.11° C | 77% | 1006.3 hPa | 0 mm | 0.45 m/s, 1° | - | - |
| 1778016606 | 16.11° C | 72% | 1006.6 hPa | 0 mm | 0.89 m/s, 253° | - | - |
| 1778016006 | 16.11° C | 72% | 1006.4 hPa | 0 mm | 2.24 m/s, 167° | - | - |
| 1778015406 | 15.56° C | 76% | 1006.5 hPa | 0 mm | 0.89 m/s, 145° | - | - |
| 1778014806 | 15.56° C | 81% | 1006.4 hPa | 0 mm | 0.89 m/s, 90° | - | - |
| 1778014207 | 15.56° C | 82% | 1006.6 hPa | 0 mm | 0 m/s | - | - |
* Rain latest hour (hover to see other rain measurements)
** Current wind speed in m/s (hover to see current wind gust speed)